createdAt,value
2018-04-27T00:00:18.610Z,0.00
2018-04-27T00:01:18.578Z,0.00
2018-04-27T00:02:18.551Z,0.00
2018-04-27T00:03:18.524Z,0.00
2018-04-27T00:04:18.494Z,0.00
2018-04-27T00:05:18.474Z,0.00
2018-04-27T00:06:18.438Z,0.00
2018-04-27T00:07:18.410Z,0.00
2018-04-27T00:08:18.382Z,0.00
2018-04-27T00:09:18.359Z,0.00
2018-04-27T00:10:18.325Z,0.00
2018-04-27T00:11:18.301Z,0.00
2018-04-27T00:12:18.269Z,0.00
2018-04-27T00:13:18.242Z,0.00
2018-04-27T00:14:18.228Z,0.00
2018-04-27T00:15:18.188Z,0.00
2018-04-27T00:16:18.167Z,0.00
2018-04-27T00:17:18.131Z,0.00
2018-04-27T00:18:18.112Z,0.00
2018-04-27T00:19:18.073Z,0.00
2018-04-27T00:20:18.046Z,0.00
2018-04-27T00:21:18.017Z,0.00
2018-04-27T00:22:17.990Z,0.00
2018-04-27T00:23:17.962Z,0.00
2018-04-27T00:24:17.984Z,0.00
2018-04-27T00:25:17.905Z,0.00
2018-04-27T00:26:17.879Z,0.00
2018-04-27T00:27:17.850Z,0.00
2018-04-27T00:28:17.837Z,0.00
2018-04-27T00:29:17.792Z,0.00
2018-04-27T00:30:17.762Z,0.00
2018-04-27T00:31:17.735Z,0.00
2018-04-27T00:32:17.708Z,0.00
2018-04-27T00:33:17.733Z,0.00
2018-04-27T00:34:17.668Z,0.00
2018-04-27T00:35:17.631Z,0.00
2018-04-27T00:36:17.598Z,0.00
2018-04-27T00:37:17.568Z,0.00
2018-04-27T00:38:17.539Z,0.00
2018-04-27T00:39:17.511Z,0.00
2018-04-27T00:40:17.494Z,0.00
2018-04-27T00:41:17.457Z,0.00
2018-04-27T00:42:17.434Z,0.00
2018-04-27T00:43:17.399Z,0.00
2018-04-27T00:44:17.380Z,0.00
2018-04-27T00:45:17.345Z,0.00
2018-04-27T00:46:17.316Z,0.00
2018-04-27T00:47:17.287Z,0.00
2018-04-27T00:48:17.259Z,0.00
2018-04-27T00:49:17.232Z,0.00
2018-04-27T00:50:17.208Z,0.00
2018-04-27T00:51:17.175Z,0.00
2018-04-27T00:52:17.148Z,0.00
2018-04-27T00:53:17.138Z,0.00
2018-04-27T00:54:17.090Z,0.00
2018-04-27T00:55:17.083Z,0.00
2018-04-27T00:56:17.035Z,0.00
2018-04-27T00:57:17.007Z,0.00
2018-04-27T00:58:16.978Z,0.00
2018-04-27T00:59:16.951Z,0.00
2018-04-27T01:00:16.929Z,0.00
2018-04-27T01:01:16.895Z,0.00
2018-04-27T01:02:16.870Z,0.00
2018-04-27T01:03:16.839Z,0.00
2018-04-27T01:04:16.812Z,0.00
2018-04-27T01:05:16.784Z,0.00
2018-04-27T01:06:16.755Z,0.00
2018-04-27T01:07:16.735Z,0.00
2018-04-27T01:08:16.699Z,0.00
2018-04-27T01:09:16.674Z,0.00
2018-04-27T01:10:16.649Z,0.00
2018-04-27T01:11:16.629Z,0.00
2018-04-27T01:12:16.595Z,0.00
2018-04-27T01:13:16.566Z,0.00
2018-04-27T01:14:16.532Z,0.00
2018-04-27T01:15:16.503Z,0.00
2018-04-27T01:16:16.526Z,0.00
2018-04-27T01:17:16.457Z,0.00
2018-04-27T01:18:16.427Z,0.00
2018-04-27T01:19:16.397Z,0.00
2018-04-27T01:20:16.364Z,0.00
2018-04-27T01:21:16.341Z,0.00
2018-04-27T01:22:16.308Z,0.00
2018-04-27T01:23:16.280Z,0.00
2018-04-27T01:24:16.255Z,0.00
2018-04-27T01:25:16.226Z,0.00
2018-04-27T01:26:16.199Z,0.00
2018-04-27T01:27:16.172Z,0.00
2018-04-27T01:28:16.142Z,0.00
2018-04-27T01:29:16.112Z,0.00
2018-04-27T01:30:16.084Z,0.00
2018-04-27T01:31:16.056Z,0.00
2018-04-27T01:32:16.029Z,0.00
2018-04-27T01:33:16.001Z,0.00
2018-04-27T01:34:16.772Z,0.00
2018-04-27T01:35:15.950Z,0.00
2018-04-27T01:36:15.927Z,0.00
2018-04-27T01:37:15.890Z,0.00
2018-04-27T01:38:15.861Z,0.00
2018-04-27T01:39:15.833Z,0.00
2018-04-27T01:40:15.810Z,0.00
2018-04-27T01:41:15.779Z,0.00
2018-04-27T01:42:15.750Z,0.00
2018-04-27T01:43:15.722Z,0.00
2018-04-27T01:44:15.695Z,0.00
2018-04-27T01:45:15.668Z,0.00
2018-04-27T01:46:15.639Z,0.00
2018-04-27T01:47:15.615Z,0.00
2018-04-27T01:48:15.587Z,0.00
2018-04-27T01:49:15.558Z,0.00
2018-04-27T01:50:15.535Z,0.00
2018-04-27T01:51:15.502Z,0.00
2018-04-27T01:52:15.475Z,0.00
2018-04-27T01:53:15.448Z,0.00
2018-04-27T01:54:15.422Z,0.00
2018-04-27T01:55:15.393Z,0.00
2018-04-27T01:56:15.365Z,0.00
2018-04-27T01:57:15.337Z,0.00
2018-04-27T01:58:15.307Z,0.00
2018-04-27T01:59:15.281Z,0.00
2018-04-27T02:00:15.254Z,0.00
2018-04-27T02:01:15.226Z,0.00
2018-04-27T02:02:15.200Z,0.00
2018-04-27T02:03:15.168Z,0.00
2018-04-27T02:04:15.143Z,0.00
2018-04-27T02:05:15.120Z,0.00
2018-04-27T02:06:15.086Z,0.00
2018-04-27T02:07:15.057Z,0.00
2018-04-27T02:08:15.030Z,0.00
2018-04-27T02:09:15.056Z,0.00
2018-04-27T02:10:14.979Z,0.00
2018-04-27T02:11:14.948Z,0.00
2018-04-27T02:12:14.919Z,0.00
2018-04-27T02:13:14.892Z,0.00
2018-04-27T02:14:14.864Z,0.00
2018-04-27T02:15:14.835Z,0.00
2018-04-27T02:16:14.807Z,0.00
2018-04-27T02:17:14.779Z,0.00
2018-04-27T02:18:14.751Z,0.00
2018-04-27T02:19:14.723Z,0.00
2018-04-27T02:20:14.697Z,0.00
2018-04-27T02:21:14.668Z,0.00
2018-04-27T02:22:14.638Z,0.00
2018-04-27T02:23:14.613Z,0.00
2018-04-27T02:24:14.587Z,0.00
2018-04-27T02:25:14.556Z,0.00
2018-04-27T02:26:14.527Z,0.00
2018-04-27T02:27:14.550Z,0.00
2018-04-27T02:28:14.472Z,0.00
2018-04-27T02:29:14.444Z,0.00
2018-04-27T02:30:14.417Z,0.00
2018-04-27T02:31:14.388Z,0.00
2018-04-27T02:32:14.360Z,0.00
2018-04-27T02:33:14.339Z,0.00
2018-04-27T02:34:14.303Z,0.00
2018-04-27T02:35:14.275Z,0.00
2018-04-27T02:36:14.249Z,0.00
2018-04-27T02:37:14.220Z,0.00
2018-04-27T02:38:14.191Z,0.00
2018-04-27T02:39:14.168Z,0.00
2018-04-27T02:40:14.142Z,0.00
2018-04-27T02:41:14.107Z,0.00
2018-04-27T02:42:14.089Z,0.00
2018-04-27T02:43:14.050Z,0.00
2018-04-27T02:44:14.023Z,0.00
2018-04-27T02:45:13.996Z,0.00
2018-04-27T02:46:13.966Z,0.00
2018-04-27T02:47:13.938Z,0.00
2018-04-27T02:48:13.913Z,0.00
2018-04-27T02:49:13.882Z,0.00
2018-04-27T02:50:13.854Z,0.00
2018-04-27T02:51:13.826Z,0.00
2018-04-27T02:52:13.798Z,0.00
2018-04-27T02:53:13.770Z,0.00
2018-04-27T02:54:13.741Z,0.00
2018-04-27T02:55:13.714Z,0.00
2018-04-27T02:56:13.686Z,0.00
2018-04-27T02:57:13.659Z,0.00
2018-04-27T02:58:13.634Z,0.00
2018-04-27T02:59:13.602Z,0.00
2018-04-27T03:00:13.579Z,0.00
2018-04-27T03:01:13.552Z,0.00
2018-04-27T03:02:13.524Z,0.00
2018-04-27T03:03:13.489Z,0.00
2018-04-27T03:04:13.462Z,0.00
2018-04-27T03:05:13.434Z,0.00
2018-04-27T03:06:13.405Z,0.00
2018-04-27T03:07:13.378Z,0.00
2018-04-27T03:08:13.349Z,0.00
2018-04-27T03:09:13.321Z,0.00
2018-04-27T03:10:13.292Z,4.00
2018-04-27T03:11:13.263Z,4.00
2018-04-27T03:12:13.236Z,4.00
2018-04-27T03:13:13.212Z,0.00
2018-04-27T03:14:13.180Z,4.00
2018-04-27T03:15:13.152Z,4.00
2018-04-27T03:16:13.126Z,0.00
2018-04-27T03:17:13.118Z,4.00
2018-04-27T03:18:13.066Z,8.00
2018-04-27T03:19:13.039Z,4.00
2018-04-27T03:20:13.010Z,4.00
2018-04-27T03:21:12.983Z,8.00
2018-04-27T03:22:12.954Z,8.00
2018-04-27T03:23:12.926Z,12.00
2018-04-27T03:24:12.897Z,12.00
2018-04-27T03:25:12.870Z,12.00
2018-04-27T03:26:12.844Z,16.00
2018-04-27T03:27:12.818Z,16.00
2018-04-27T03:28:12.785Z,20.00
2018-04-27T03:29:12.757Z,24.00
2018-04-27T03:30:12.728Z,24.00
2018-04-27T03:31:12.700Z,32.00
2018-04-27T03:32:12.674Z,32.00
2018-04-27T03:33:12.644Z,32.00
2018-04-27T03:34:12.666Z,36.00
2018-04-27T03:35:12.588Z,44.00
2018-04-27T03:36:12.559Z,48.00
2018-04-27T03:37:12.532Z,56.00
2018-04-27T03:38:12.504Z,64.00
2018-04-27T03:39:12.475Z,68.00
2018-04-27T03:40:12.447Z,80.00
2018-04-27T03:41:12.427Z,92.00
2018-04-27T03:42:12.395Z,108.00
2018-04-27T03:43:12.362Z,124.00
2018-04-27T03:44:12.334Z,144.00
2018-04-27T03:45:12.307Z,164.00
2018-04-27T03:46:12.283Z,188.00
2018-04-27T03:47:12.251Z,220.00
2018-04-27T03:48:12.222Z,252.00
2018-04-27T03:49:12.199Z,280.00
2018-04-27T03:50:12.172Z,312.00
2018-04-27T03:51:12.141Z,348.00
2018-04-27T03:52:12.119Z,384.00
2018-04-27T03:53:12.085Z,420.00
2018-04-27T03:54:12.063Z,468.00
2018-04-27T03:55:12.026Z,524.00
2018-04-27T03:56:11.999Z,572.00
2018-04-27T03:57:11.970Z,628.00
2018-04-27T03:58:11.955Z,676.00
2018-04-27T03:59:11.914Z,724.00
2018-04-27T04:00:11.890Z,772.00
2018-04-27T04:01:11.880Z,824.00
2018-04-27T04:02:11.850Z,876.00
2018-04-27T04:03:11.802Z,932.00
2018-04-27T04:04:11.786Z,992.00
2018-04-27T04:05:11.784Z,1056.00
2018-04-27T04:06:11.717Z,1128.00
2018-04-27T04:07:11.699Z,1208.00
2018-04-27T04:08:11.662Z,1284.00
2018-04-27T04:09:11.634Z,1368.00
2018-04-27T04:10:11.606Z,1460.00
2018-04-27T04:11:11.577Z,1548.00
2018-04-27T04:12:11.550Z,1632.00
2018-04-27T04:13:11.522Z,1708.00
2018-04-27T04:14:11.493Z,1796.00
2018-04-27T04:15:11.466Z,1884.00
2018-04-27T04:16:11.438Z,1960.00
2018-04-27T04:17:11.411Z,2020.00
2018-04-27T04:18:11.394Z,2076.00
2018-04-27T04:19:11.356Z,2124.00
2018-04-27T04:20:11.326Z,2152.00
2018-04-27T04:21:11.298Z,2212.00
2018-04-27T04:22:11.270Z,2284.00
2018-04-27T04:23:11.243Z,2372.00
2018-04-27T04:24:11.215Z,2532.00
2018-04-27T04:25:11.188Z,2704.00
2018-04-27T04:26:11.158Z,2756.00
2018-04-27T04:27:11.131Z,2864.00
2018-04-27T04:28:11.104Z,2932.00
2018-04-27T04:29:11.077Z,2948.00
2018-04-27T04:30:11.049Z,2948.00
2018-04-27T04:31:11.023Z,2872.00
2018-04-27T04:32:10.998Z,2792.00
2018-04-27T04:33:10.985Z,2796.00
2018-04-27T04:34:10.937Z,2868.00
2018-04-27T04:35:10.959Z,2976.00
2018-04-27T04:36:10.882Z,3044.00
2018-04-27T04:37:10.858Z,3124.00
2018-04-27T04:38:10.829Z,3272.00
2018-04-27T04:39:10.818Z,3568.00
2018-04-27T04:40:10.772Z,3960.00
2018-04-27T04:41:10.752Z,4424.00
2018-04-27T04:42:10.715Z,4824.00
2018-04-27T04:43:10.690Z,5096.00
2018-04-27T04:44:10.676Z,5428.00
2018-04-27T04:45:10.676Z,5652.00
2018-04-27T04:46:10.605Z,6044.00
2018-04-27T04:47:10.576Z,6704.00
2018-04-27T04:48:10.553Z,6996.00
2018-04-27T04:49:10.522Z,7288.00
2018-04-27T04:50:10.494Z,7388.00
2018-04-27T04:51:10.467Z,7420.00
2018-04-27T04:52:10.441Z,7920.00
2018-04-27T04:53:10.412Z,8424.00
2018-04-27T04:54:10.384Z,8784.00
2018-04-27T04:55:10.357Z,9788.00
2018-04-27T04:56:10.330Z,10160.00
2018-04-27T04:57:10.303Z,10208.00
2018-04-27T04:58:10.275Z,9620.00
2018-04-27T04:59:10.253Z,10200.00
2018-04-27T05:00:10.221Z,9936.00
2018-04-27T05:01:10.200Z,10308.00
2018-04-27T05:02:10.171Z,9928.00
2018-04-27T05:03:10.140Z,9756.00
2018-04-27T05:04:10.112Z,9568.00
2018-04-27T05:05:10.086Z,9960.00
2018-04-27T05:06:10.060Z,9740.00
2018-04-27T05:07:10.032Z,9688.00
2018-04-27T05:08:10.010Z,9976.00
2018-04-27T05:09:09.978Z,9876.00
2018-04-27T05:10:09.950Z,9796.00
2018-04-27T05:11:09.926Z,9492.00
2018-04-27T05:12:09.897Z,8880.00
2018-04-27T05:13:09.871Z,9560.00
2018-04-27T05:14:09.844Z,8616.00
2018-04-27T05:15:09.817Z,9092.00
2018-04-27T05:16:09.791Z,9204.00
2018-04-27T05:17:09.764Z,10024.00
2018-04-27T05:18:09.737Z,9764.00
2018-04-27T05:19:09.710Z,10392.00
2018-04-27T05:20:09.683Z,11196.00
2018-04-27T05:21:09.656Z,12468.00
2018-04-27T05:22:09.629Z,13640.00
2018-04-27T05:23:09.602Z,15296.00
2018-04-27T05:24:09.584Z,16320.00
2018-04-27T05:25:09.557Z,16864.00
2018-04-27T05:26:09.529Z,16416.00
2018-04-27T05:27:09.495Z,15136.00
2018-04-27T05:28:09.468Z,16032.00
2018-04-27T05:29:09.441Z,16576.00
2018-04-27T05:30:09.414Z,16992.00
2018-04-27T05:31:09.388Z,17280.00
2018-04-27T05:32:09.362Z,17024.00
2018-04-27T05:33:09.335Z,16096.00
2018-04-27T05:34:09.308Z,15968.00
2018-04-27T05:35:09.282Z,16160.00
2018-04-27T05:36:09.264Z,15680.00
2018-04-27T05:37:09.230Z,14848.00
2018-04-27T05:38:09.205Z,14688.00
2018-04-27T05:39:09.178Z,14192.00
2018-04-27T05:40:09.151Z,13588.00
2018-04-27T05:41:09.126Z,12972.00
2018-04-27T05:42:09.102Z,12424.00
2018-04-27T05:43:09.073Z,12836.00
2018-04-27T05:44:09.047Z,13256.00
2018-04-27T05:45:09.071Z,13028.00
2018-04-27T05:46:08.995Z,13408.00
2018-04-27T05:47:08.970Z,14848.00
2018-04-27T05:48:08.943Z,14592.00
2018-04-27T05:49:08.917Z,17312.00
2018-04-27T05:50:08.889Z,18016.00
2018-04-27T05:51:08.864Z,19360.00
2018-04-27T05:52:08.838Z,20224.00
2018-04-27T05:53:08.816Z,21056.00
2018-04-27T05:54:08.785Z,18912.00
2018-04-27T05:55:08.768Z,21632.00
2018-04-27T05:56:08.735Z,21280.00
2018-04-27T05:57:08.709Z,21856.00
2018-04-27T05:58:08.681Z,23872.00
2018-04-27T05:59:08.656Z,24640.00
2018-04-27T06:00:08.631Z,25152.00
2018-04-27T06:01:08.613Z,25312.00
2018-04-27T06:02:08.580Z,25472.00
2018-04-27T06:03:08.556Z,24928.00
2018-04-27T06:04:08.529Z,25632.00
2018-04-27T06:05:08.503Z,18816.00
2018-04-27T06:06:08.479Z,21312.00
2018-04-27T06:07:08.452Z,21792.00
2018-04-27T06:08:08.428Z,21472.00
2018-04-27T06:09:08.404Z,21600.00
2018-04-27T06:10:08.382Z,25088.00
2018-04-27T06:11:08.353Z,26752.00
2018-04-27T06:12:08.409Z,26880.00
2018-04-27T06:13:08.303Z,26848.00
2018-04-27T06:14:08.283Z,26112.00
2018-04-27T06:15:08.253Z,27136.00
2018-04-27T06:16:08.287Z,28448.00
2018-04-27T06:17:08.210Z,26720.00
2018-04-27T06:18:08.180Z,25248.00
2018-04-27T06:19:08.154Z,25568.00
2018-04-27T06:20:08.142Z,24576.00
2018-04-27T06:21:08.105Z,29824.00
2018-04-27T06:22:08.080Z,29504.00
2018-04-27T06:23:08.055Z,28704.00
2018-04-27T06:24:08.031Z,29728.00
2018-04-27T06:25:08.007Z,27872.00
2018-04-27T06:26:07.982Z,27776.00
2018-04-27T06:27:07.957Z,25120.00
2018-04-27T06:28:07.932Z,27936.00
2018-04-27T06:29:07.908Z,28256.00
2018-04-27T06:30:07.887Z,27488.00
2018-04-27T06:31:07.864Z,26848.00
2018-04-27T06:32:07.834Z,27072.00
2018-04-27T06:33:07.817Z,26368.00
2018-04-27T06:34:07.785Z,27488.00
2018-04-27T06:35:07.761Z,27808.00
2018-04-27T06:36:07.737Z,28288.00
2018-04-27T06:37:07.717Z,30880.00
2018-04-27T06:38:07.688Z,32320.00
2018-04-27T06:39:07.663Z,32864.00
2018-04-27T06:40:07.647Z,33664.00
2018-04-27T06:41:07.616Z,35808.00
2018-04-27T06:42:07.591Z,35968.00
2018-04-27T06:43:07.567Z,36032.00
2018-04-27T06:44:07.544Z,33792.00
2018-04-27T06:45:07.520Z,32832.00
2018-04-27T06:46:07.495Z,32768.00
2018-04-27T06:47:07.471Z,32672.00
2018-04-27T06:48:07.448Z,31616.00
2018-04-27T06:49:07.428Z,29632.00
2018-04-27T06:50:07.400Z,28768.00
2018-04-27T06:51:07.377Z,27904.00
2018-04-27T06:52:07.354Z,27712.00
2018-04-27T06:53:07.331Z,26720.00
2018-04-27T06:54:07.310Z,25888.00
2018-04-27T06:55:07.291Z,26784.00
2018-04-27T06:56:07.265Z,26528.00
2018-04-27T06:57:07.239Z,27040.00
2018-04-27T06:58:07.215Z,27776.00
2018-04-27T06:59:07.200Z,38464.00
2018-04-27T07:00:07.174Z,56576.00
2018-04-27T07:01:07.148Z,59296.00
2018-04-27T07:02:07.124Z,43104.00
2018-04-27T07:03:07.101Z,45248.00
2018-04-27T07:04:07.079Z,46560.00
2018-04-27T07:05:07.084Z,50752.00
2018-04-27T07:06:07.034Z,50048.00
2018-04-27T07:07:07.010Z,49216.00
2018-04-27T07:08:06.988Z,48672.00
2018-04-27T07:09:06.967Z,48960.00
2018-04-27T07:10:06.944Z,49440.00
2018-04-27T07:11:06.920Z,50784.00
2018-04-27T07:12:06.901Z,51232.00
2018-04-27T07:13:06.880Z,49632.00
2018-04-27T07:14:06.854Z,49632.00
2018-04-27T07:15:06.985Z,49216.00
2018-04-27T07:16:06.811Z,50496.00
2018-04-27T07:17:06.871Z,50624.00
2018-04-27T07:18:06.768Z,50144.00
2018-04-27T07:19:06.759Z,51456.00
2018-04-27T07:20:06.816Z,52768.00
2018-04-27T07:21:06.701Z,51552.00
2018-04-27T07:22:06.682Z,51296.00
2018-04-27T07:23:06.659Z,51904.00
2018-04-27T07:24:06.636Z,51360.00
2018-04-27T07:25:06.644Z,50048.00
2018-04-27T07:26:06.593Z,48096.00
2018-04-27T07:27:06.572Z,48064.00
2018-04-27T07:28:06.551Z,49472.00
2018-04-27T07:29:06.530Z,50624.00
2018-04-27T07:30:06.508Z,51360.00
2018-04-27T07:31:06.488Z,49696.00
2018-04-27T07:32:06.467Z,44256.00
2018-04-27T07:33:06.447Z,43136.00
2018-04-27T07:34:06.493Z,43520.00
2018-04-27T07:35:06.420Z,42560.00
2018-04-27T07:36:06.387Z,44928.00
2018-04-27T07:37:06.363Z,46176.00
2018-04-27T07:38:06.341Z,48416.00
2018-04-27T07:39:06.401Z,49920.00
2018-04-27T07:40:06.312Z,50016.00
2018-04-27T07:41:06.281Z,45120.00
2018-04-27T07:42:06.266Z,44800.00
2018-04-27T07:43:06.239Z,49056.00
2018-04-27T07:44:06.220Z,51648.00
2018-04-27T07:45:06.203Z,52000.00
2018-04-27T07:46:06.178Z,53856.00
2018-04-27T07:47:06.156Z,54720.00
2018-04-27T07:48:06.134Z,54784.00
2018-04-27T07:49:06.114Z,56192.00
2018-04-27T07:50:06.150Z,54496.00
2018-04-27T07:51:06.076Z,54016.00
2018-04-27T07:52:06.059Z,53312.00
2018-04-27T07:53:06.037Z,55008.00
2018-04-27T07:54:06.018Z,55488.00
2018-04-27T07:55:05.999Z,55616.00
2018-04-27T07:56:05.974Z,55392.00
2018-04-27T07:57:05.984Z,55904.00
2018-04-27T07:58:05.935Z,54720.00
2018-04-27T07:59:05.915Z,55168.00
2018-04-27T08:00:05.893Z,58112.00
2018-04-27T08:01:05.873Z,58432.00
2018-04-27T08:02:05.875Z,58112.00
2018-04-27T08:03:05.833Z,56064.00
2018-04-27T08:04:05.891Z,58752.00
2018-04-27T08:05:05.793Z,61152.00
2018-04-27T08:06:05.797Z,60320.00
2018-04-27T08:07:05.814Z,57248.00
2018-04-27T08:08:05.733Z,59392.00
2018-04-27T08:09:05.713Z,60160.00
2018-04-27T08:10:05.693Z,59936.00
2018-04-27T08:11:05.680Z,59488.00
2018-04-27T08:12:05.653Z,60576.00
2018-04-27T08:13:05.636Z,62208.00
2018-04-27T08:14:05.622Z,63616.00
2018-04-27T08:15:05.594Z,64160.00
2018-04-27T08:16:05.780Z,63840.00
2018-04-27T08:17:05.555Z,66272.00
2018-04-27T08:18:05.570Z,68544.00
2018-04-27T08:19:05.584Z,67456.00
2018-04-27T08:20:05.500Z,60576.00
2018-04-27T08:21:05.534Z,58336.00
2018-04-27T08:22:05.459Z,66816.00
2018-04-27T08:23:05.440Z,66176.00
2018-04-27T08:24:05.421Z,70528.00
2018-04-27T08:25:05.406Z,67712.00
2018-04-27T08:26:05.382Z,71360.00
2018-04-27T08:27:05.368Z,72416.00
2018-04-27T08:28:05.364Z,75136.00
2018-04-27T08:29:05.341Z,76032.00
2018-04-27T08:30:05.318Z,77024.00
2018-04-27T08:31:05.291Z,79104.00
2018-04-27T08:32:05.307Z,77728.00
2018-04-27T08:33:05.255Z,77984.00
2018-04-27T08:34:05.234Z,83616.00
2018-04-27T08:35:05.216Z,81120.00
2018-04-27T08:36:05.267Z,82048.00
2018-04-27T08:37:05.180Z,69728.00
2018-04-27T08:38:05.161Z,76288.00
2018-04-27T08:39:05.143Z,81792.00
2018-04-27T08:40:05.127Z,84704.00
2018-04-27T08:41:05.116Z,87648.00
2018-04-27T08:42:05.099Z,85344.00
2018-04-27T08:43:05.081Z,88160.00
2018-04-27T08:44:05.066Z,87616.00
2018-04-27T08:45:05.041Z,85120.00
2018-04-27T08:46:05.017Z,85952.00
2018-04-27T08:47:04.998Z,86496.00
2018-04-27T08:48:04.985Z,80704.00
2018-04-27T08:49:04.968Z,82176.00
2018-04-27T08:50:04.945Z,81696.00
2018-04-27T08:51:04.927Z,79584.00
2018-04-27T08:52:04.946Z,23584.00
2018-04-27T08:53:04.907Z,83168.00
2018-04-27T08:54:04.874Z,22464.00
2018-04-27T08:55:04.867Z,83104.00
2018-04-27T08:56:04.838Z,27392.00
2018-04-27T08:57:04.819Z,96928.00
2018-04-27T08:58:04.817Z,88032.00
2018-04-27T08:59:04.786Z,87328.00
2018-04-27T09:00:04.771Z,91040.00
2018-04-27T09:01:04.752Z,97792.00
2018-04-27T09:02:04.725Z,95136.00
2018-04-27T09:03:04.706Z,86304.00
2018-04-27T09:04:04.688Z,91360.00
2018-04-27T09:05:04.670Z,70560.00
2018-04-27T09:06:04.658Z,90080.00
2018-04-27T09:07:04.651Z,88032.00
2018-04-27T09:08:04.613Z,90784.00
2018-04-27T09:09:04.596Z,88352.00
2018-04-27T09:10:04.588Z,93504.00
2018-04-27T09:11:04.558Z,100256.00
2018-04-27T09:12:04.551Z,100352.00
2018-04-27T09:13:04.726Z,93408.00
2018-04-27T09:14:04.502Z,88832.00
2018-04-27T09:15:04.483Z,100128.00
2018-04-27T09:16:04.467Z,69408.00
2018-04-27T09:17:04.447Z,18108.00
2018-04-27T09:18:04.433Z,17372.00
2018-04-27T09:19:04.411Z,15012.00
2018-04-27T09:20:04.404Z,13972.00
2018-04-27T09:21:04.376Z,13860.00
2018-04-27T09:22:04.355Z,13856.00
2018-04-27T09:23:04.333Z,13492.00
2018-04-27T09:24:04.353Z,13752.00
2018-04-27T09:25:04.296Z,14136.00
2018-04-27T09:26:04.272Z,14696.00
2018-04-27T09:27:04.251Z,15916.00
2018-04-27T09:28:04.241Z,18336.00
2018-04-27T09:29:04.210Z,25408.00
2018-04-27T09:30:04.189Z,93760.00
2018-04-27T09:31:04.166Z,102912.00
2018-04-27T09:32:04.145Z,102688.00
2018-04-27T09:33:04.125Z,103840.00
2018-04-27T09:34:04.103Z,90528.00
2018-04-27T09:35:04.082Z,100032.00
2018-04-27T09:36:04.063Z,29632.00
2018-04-27T09:37:04.056Z,25088.00
2018-04-27T09:38:04.032Z,23264.00
2018-04-27T09:39:04.000Z,22688.00
2018-04-27T09:40:03.981Z,20160.00
2018-04-27T09:41:04.043Z,18464.00
2018-04-27T09:42:03.942Z,18432.00
2018-04-27T09:43:03.919Z,21024.00
2018-04-27T09:44:03.899Z,26176.00
2018-04-27T09:45:03.878Z,94112.00
2018-04-27T09:46:03.856Z,46976.00
2018-04-27T09:47:03.835Z,22528.00
2018-04-27T09:48:03.814Z,18304.00
2018-04-27T09:49:03.796Z,15192.00
2018-04-27T09:50:03.783Z,13988.00
2018-04-27T09:51:03.780Z,13372.00
2018-04-27T09:52:03.728Z,13348.00
2018-04-27T09:53:03.726Z,14092.00
2018-04-27T09:54:03.693Z,16188.00
2018-04-27T09:55:03.666Z,73504.00
2018-04-27T09:56:03.669Z,17792.00
2018-04-27T09:57:03.621Z,18720.00
2018-04-27T09:58:03.598Z,21152.00
2018-04-27T09:59:03.576Z,22848.00
2018-04-27T10:00:03.552Z,23616.00
2018-04-27T10:01:03.531Z,27072.00
2018-04-27T10:02:03.507Z,36256.00
2018-04-27T10:03:03.484Z,34560.00
2018-04-27T10:04:03.460Z,32160.00
2018-04-27T10:05:03.438Z,31680.00
2018-04-27T10:06:03.416Z,28416.00
2018-04-27T10:07:03.391Z,23776.00
2018-04-27T10:08:03.380Z,21408.00
2018-04-27T10:09:03.354Z,20416.00
2018-04-27T10:10:03.325Z,20704.00
2018-04-27T10:11:03.308Z,21184.00
2018-04-27T10:12:03.279Z,21760.00
2018-04-27T10:13:03.256Z,21728.00
2018-04-27T10:14:03.233Z,21440.00
2018-04-27T10:15:03.245Z,21344.00
2018-04-27T10:16:03.190Z,23232.00
2018-04-27T10:17:03.164Z,28768.00
2018-04-27T10:18:03.143Z,105824.00
2018-04-27T10:19:03.130Z,104256.00
2018-04-27T10:20:03.109Z,84032.00
2018-04-27T10:21:03.073Z,56160.00
2018-04-27T10:22:03.053Z,87744.00
2018-04-27T10:23:03.028Z,107040.00
2018-04-27T10:24:03.007Z,106208.00
2018-04-27T10:25:02.988Z,86848.00
2018-04-27T10:26:02.970Z,99008.00
2018-04-27T10:27:02.945Z,67264.00
2018-04-27T10:28:03.130Z,43904.00
2018-04-27T10:29:02.906Z,91488.00
2018-04-27T10:30:02.885Z,96448.00
2018-04-27T10:31:02.892Z,103200.00
2018-04-27T10:32:02.855Z,107648.00
2018-04-27T10:33:02.828Z,110656.00
2018-04-27T10:34:03.013Z,108416.00
2018-04-27T10:35:02.998Z,106592.00
2018-04-27T10:36:02.975Z,105184.00
2018-04-27T10:37:02.957Z,95200.00
2018-04-27T10:38:02.736Z,111200.00
2018-04-27T10:39:02.718Z,39328.00
2018-04-27T10:40:02.702Z,46176.00
2018-04-27T10:41:02.688Z,35232.00
2018-04-27T10:42:02.667Z,35424.00
2018-04-27T10:43:02.656Z,37024.00
2018-04-27T10:44:02.633Z,45152.00
2018-04-27T10:45:02.615Z,103680.00
2018-04-27T10:46:02.601Z,32672.00
2018-04-27T10:47:02.583Z,28416.00
2018-04-27T10:48:02.561Z,26112.00
2018-04-27T10:49:02.544Z,24832.00
2018-04-27T10:50:02.525Z,24608.00
2018-04-27T10:51:02.534Z,24544.00
2018-04-27T10:52:02.522Z,24768.00
2018-04-27T10:53:02.466Z,25248.00
2018-04-27T10:54:02.446Z,27232.00
2018-04-27T10:55:02.427Z,38944.00
2018-04-27T10:56:02.437Z,32960.00
2018-04-27T10:57:02.386Z,31712.00
2018-04-27T10:58:02.371Z,32896.00
2018-04-27T10:59:02.345Z,39712.00
2018-04-27T11:00:02.327Z,102112.00
2018-04-27T11:01:02.314Z,112512.00
2018-04-27T11:02:02.284Z,114400.00
2018-04-27T11:03:02.265Z,112032.00
2018-04-27T11:04:02.247Z,112000.00
2018-04-27T11:05:02.227Z,109984.00
2018-04-27T11:06:02.206Z,110848.00
2018-04-27T11:07:02.189Z,108032.00
2018-04-27T11:08:02.187Z,106304.00
2018-04-27T11:09:02.155Z,109280.00
2018-04-27T11:10:02.135Z,110144.00
2018-04-27T11:11:02.161Z,102624.00
2018-04-27T11:12:02.106Z,62656.00
2018-04-27T11:13:02.085Z,38336.00
2018-04-27T11:14:02.069Z,36736.00
2018-04-27T11:15:02.052Z,46336.00
2018-04-27T11:16:02.036Z,36672.00
2018-04-27T11:17:02.036Z,34304.00
2018-04-27T11:18:02.001Z,32576.00
2018-04-27T11:19:01.987Z,33120.00
2018-04-27T11:20:01.971Z,68768.00
2018-04-27T11:21:01.951Z,34528.00
2018-04-27T11:22:01.963Z,37536.00
2018-04-27T11:23:01.915Z,69792.00
2018-04-27T11:24:01.907Z,56064.00
2018-04-27T11:25:01.885Z,101888.00
2018-04-27T11:26:01.865Z,101920.00
2018-04-27T11:27:01.848Z,100608.00
2018-04-27T11:28:01.835Z,100832.00
2018-04-27T11:29:01.819Z,98112.00
2018-04-27T11:30:01.797Z,103008.00
2018-04-27T11:31:01.777Z,102080.00
2018-04-27T11:32:01.766Z,99776.00
2018-04-27T11:33:01.745Z,61312.00
2018-04-27T11:34:01.729Z,41216.00
2018-04-27T11:35:01.726Z,56000.00
2018-04-27T11:36:01.698Z,96160.00
2018-04-27T11:37:01.682Z,98976.00
2018-04-27T11:38:01.664Z,98272.00
2018-04-27T11:39:01.656Z,96608.00
2018-04-27T11:40:01.639Z,51968.00
2018-04-27T11:41:01.616Z,83584.00
2018-04-27T11:42:01.600Z,49856.00
2018-04-27T11:43:01.584Z,48896.00
2018-04-27T11:44:01.569Z,68544.00
2018-04-27T11:45:01.552Z,83680.00
2018-04-27T11:46:01.540Z,45792.00
2018-04-27T11:47:01.521Z,47040.00
2018-04-27T11:48:01.501Z,77440.00
2018-04-27T11:49:01.485Z,80928.00
2018-04-27T11:50:01.467Z,67136.00
2018-04-27T11:51:01.460Z,44800.00
2018-04-27T11:52:01.432Z,44800.00
2018-04-27T11:53:01.416Z,62880.00
2018-04-27T11:54:01.397Z,77792.00
2018-04-27T11:55:01.392Z,54560.00
2018-04-27T11:56:01.367Z,74592.00
2018-04-27T11:57:01.353Z,71008.00
2018-04-27T11:58:01.327Z,52256.00
2018-04-27T11:59:01.313Z,34752.00
2018-04-27T12:00:01.325Z,30560.00
2018-04-27T12:01:01.286Z,28224.00
2018-04-27T12:02:01.258Z,26528.00
2018-04-27T12:03:01.257Z,24704.00
2018-04-27T12:04:01.219Z,23232.00
2018-04-27T12:05:01.202Z,22464.00
2018-04-27T12:06:01.197Z,22400.00
2018-04-27T12:07:01.172Z,22912.00
2018-04-27T12:08:01.170Z,24256.00
2018-04-27T12:09:01.141Z,27776.00
2018-04-27T12:10:01.149Z,30112.00
2018-04-27T12:11:01.086Z,30784.00
2018-04-27T12:12:01.068Z,34272.00